sensor_id;sensor_type;location;lat;lon;timestamp;P1;durP1;ratioP1;P2;durP2;ratioP2
18308;SDS011;9280;50.276;18.650;2022-08-21T00:02:13;14.73;;;9.80;;
18308;SDS011;9280;50.276;18.650;2022-08-21T00:05:01;18.40;;;10.70;;
18308;SDS011;9280;50.276;18.650;2022-08-21T00:07:48;16.60;;;8.83;;
18308;SDS011;9280;50.276;18.650;2022-08-21T00:10:34;14.57;;;9.07;;
18308;SDS011;9280;50.276;18.650;2022-08-21T00:13:21;18.27;;;11.03;;
18308;SDS011;9280;50.276;18.650;2022-08-21T00:16:08;22.13;;;10.77;;
18308;SDS011;9280;50.276;18.650;2022-08-21T00:18:55;18.20;;;11.10;;
18308;SDS011;9280;50.276;18.650;2022-08-21T00:21:42;19.10;;;10.43;;
18308;SDS011;9280;50.276;18.650;2022-08-21T00:24:29;15.80;;;10.90;;
18308;SDS011;9280;50.276;18.650;2022-08-21T00:27:15;20.23;;;11.33;;
18308;SDS011;9280;50.276;18.650;2022-08-21T00:30:02;18.37;;;10.37;;
18308;SDS011;9280;50.276;18.650;2022-08-21T00:32:49;13.87;;;9.00;;
18308;SDS011;9280;50.276;18.650;2022-08-21T00:35:36;18.07;;;10.63;;
18308;SDS011;9280;50.276;18.650;2022-08-21T00:38:24;16.87;;;9.60;;
18308;SDS011;9280;50.276;18.650;2022-08-21T00:41:10;11.10;;;7.47;;
18308;SDS011;9280;50.276;18.650;2022-08-21T00:43:57;14.67;;;8.33;;
18308;SDS011;9280;50.276;18.650;2022-08-21T00:46:44;13.93;;;9.00;;
18308;SDS011;9280;50.276;18.650;2022-08-21T00:49:30;13.30;;;7.93;;
18308;SDS011;9280;50.276;18.650;2022-08-21T00:52:19;11.83;;;6.80;;
18308;SDS011;9280;50.276;18.650;2022-08-21T00:55:08;10.03;;;6.07;;
18308;SDS011;9280;50.276;18.650;2022-08-21T00:57:57;16.40;;;7.10;;
18308;SDS011;9280;50.276;18.650;2022-08-21T01:00:45;9.73;;;5.77;;
18308;SDS011;9280;50.276;18.650;2022-08-21T01:03:33;15.73;;;7.47;;
18308;SDS011;9280;50.276;18.650;2022-08-21T01:06:19;10.43;;;6.80;;
18308;SDS011;9280;50.276;18.650;2022-08-21T01:09:05;11.83;;;7.20;;
18308;SDS011;9280;50.276;18.650;2022-08-21T01:11:54;9.93;;;6.97;;
18308;SDS011;9280;50.276;18.650;2022-08-21T01:14:40;10.80;;;7.03;;
18308;SDS011;9280;50.276;18.650;2022-08-21T01:17:27;9.60;;;6.47;;
18308;SDS011;9280;50.276;18.650;2022-08-21T01:20:15;13.07;;;6.83;;
18308;SDS011;9280;50.276;18.650;2022-08-21T01:23:05;9.77;;;6.17;;
18308;SDS011;9280;50.276;18.650;2022-08-21T01:25:51;9.27;;;6.10;;
18308;SDS011;9280;50.276;18.650;2022-08-21T01:28:38;7.93;;;5.40;;
18308;SDS011;9280;50.276;18.650;2022-08-21T01:31:27;9.30;;;5.63;;
18308;SDS011;9280;50.276;18.650;2022-08-21T01:34:14;8.23;;;4.90;;
18308;SDS011;9280;50.276;18.650;2022-08-21T01:37:01;7.60;;;4.63;;
18308;SDS011;9280;50.276;18.650;2022-08-21T01:39:48;7.10;;;3.50;;
18308;SDS011;9280;50.276;18.650;2022-08-21T01:42:35;6.70;;;3.67;;
18308;SDS011;9280;50.276;18.650;2022-08-21T01:45:22;5.43;;;4.03;;
18308;SDS011;9280;50.276;18.650;2022-08-21T01:48:08;9.30;;;4.77;;
18308;SDS011;9280;50.276;18.650;2022-08-21T01:50:55;8.17;;;3.90;;
18308;SDS011;9280;50.276;18.650;2022-08-21T01:53:41;9.27;;;4.63;;
18308;SDS011;9280;50.276;18.650;2022-08-21T01:56:34;7.23;;;4.03;;
18308;SDS011;9280;50.276;18.650;2022-08-21T01:59:21;9.27;;;3.67;;
18308;SDS011;9280;50.276;18.650;2022-08-21T02:02:08;5.87;;;4.10;;
18308;SDS011;9280;50.276;18.650;2022-08-21T02:04:54;6.93;;;3.87;;
18308;SDS011;9280;50.276;18.650;2022-08-21T02:07:41;5.43;;;3.73;;
18308;SDS011;9280;50.276;18.650;2022-08-21T02:10:29;10.67;;;4.30;;
18308;SDS011;9280;50.276;18.650;2022-08-21T02:13:17;5.70;;;4.33;;
18308;SDS011;9280;50.276;18.650;2022-08-21T02:16:05;5.47;;;4.00;;
18308;SDS011;9280;50.276;18.650;2022-08-21T02:18:51;5.73;;;3.50;;
18308;SDS011;9280;50.276;18.650;2022-08-21T02:21:38;6.50;;;4.40;;
18308;SDS011;9280;50.276;18.650;2022-08-21T02:24:25;7.23;;;4.20;;
18308;SDS011;9280;50.276;18.650;2022-08-21T02:27:11;6.23;;;3.73;;
18308;SDS011;9280;50.276;18.650;2022-08-21T02:29:59;8.23;;;3.93;;
18308;SDS011;9280;50.276;18.650;2022-08-21T02:32:45;8.23;;;4.37;;
18308;SDS011;9280;50.276;18.650;2022-08-21T02:35:32;6.87;;;4.70;;
18308;SDS011;9280;50.276;18.650;2022-08-21T02:38:19;7.77;;;4.67;;
18308;SDS011;9280;50.276;18.650;2022-08-21T02:41:07;5.10;;;4.13;;
18308;SDS011;9280;50.276;18.650;2022-08-21T02:43:53;9.50;;;5.63;;
18308;SDS011;9280;50.276;18.650;2022-08-21T02:46:41;11.00;;;6.40;;
18308;SDS011;9280;50.276;18.650;2022-08-21T02:49:30;8.30;;;5.07;;
18308;SDS011;9280;50.276;18.650;2022-08-21T02:52:17;11.90;;;5.53;;
18308;SDS011;9280;50.276;18.650;2022-08-21T02:55:04;8.60;;;5.63;;
18308;SDS011;9280;50.276;18.650;2022-08-21T02:57:50;11.23;;;6.53;;
18308;SDS011;9280;50.276;18.650;2022-08-21T03:00:37;14.23;;;6.57;;
18308;SDS011;9280;50.276;18.650;2022-08-21T03:03:25;11.60;;;7.30;;
18308;SDS011;9280;50.276;18.650;2022-08-21T03:06:14;11.63;;;6.50;;
18308;SDS011;9280;50.276;18.650;2022-08-21T03:09:00;11.63;;;7.03;;
18308;SDS011;9280;50.276;18.650;2022-08-21T03:11:47;11.53;;;6.67;;
18308;SDS011;9280;50.276;18.650;2022-08-21T03:14:34;16.07;;;7.70;;
18308;SDS011;9280;50.276;18.650;2022-08-21T03:17:20;12.83;;;8.20;;
18308;SDS011;9280;50.276;18.650;2022-08-21T03:20:08;13.40;;;7.90;;
18308;SDS011;9280;50.276;18.650;2022-08-21T03:22:55;13.47;;;7.50;;
18308;SDS011;9280;50.276;18.650;2022-08-21T03:25:41;12.67;;;7.60;;
18308;SDS011;9280;50.276;18.650;2022-08-21T03:28:28;13.27;;;7.00;;
18308;SDS011;9280;50.276;18.650;2022-08-21T03:31:14;14.43;;;8.57;;
18308;SDS011;9280;50.276;18.650;2022-08-21T03:34:01;16.30;;;8.57;;
18308;SDS011;9280;50.276;18.650;2022-08-21T03:36:49;15.33;;;8.93;;
18308;SDS011;9280;50.276;18.650;2022-08-21T03:39:35;15.27;;;7.87;;
18308;SDS011;9280;50.276;18.650;2022-08-21T03:42:22;17.23;;;8.87;;
18308;SDS011;9280;50.276;18.650;2022-08-21T03:45:09;21.47;;;9.10;;
18308;SDS011;9280;50.276;18.650;2022-08-21T03:47:57;14.63;;;8.43;;
18308;SDS011;9280;50.276;18.650;2022-08-21T03:50:43;21.43;;;7.73;;
18308;SDS011;9280;50.276;18.650;2022-08-21T03:53:32;12.93;;;8.03;;
18308;SDS011;9280;50.276;18.650;2022-08-21T03:56:18;23.13;;;9.97;;
18308;SDS011;9280;50.276;18.650;2022-08-21T03:59:05;12.60;;;8.20;;
18308;SDS011;9280;50.276;18.650;2022-08-21T04:01:51;17.93;;;8.83;;
18308;SDS011;9280;50.276;18.650;2022-08-21T04:04:38;17.67;;;8.77;;
18308;SDS011;9280;50.276;18.650;2022-08-21T04:07:24;16.90;;;9.70;;
18308;SDS011;9280;50.276;18.650;2022-08-21T04:10:12;13.97;;;9.20;;
18308;SDS011;9280;50.276;18.650;2022-08-21T04:12:58;16.57;;;9.13;;
18308;SDS011;9280;50.276;18.650;2022-08-21T04:15:44;18.93;;;9.23;;
18308;SDS011;9280;50.276;18.650;2022-08-21T04:18:31;13.73;;;7.80;;
18308;SDS011;9280;50.276;18.650;2022-08-21T04:21:17;17.40;;;8.40;;
18308;SDS011;9280;50.276;18.650;2022-08-21T04:24:04;16.30;;;8.70;;
18308;SDS011;9280;50.276;18.650;2022-08-21T04:26:52;15.03;;;7.90;;
18308;SDS011;9280;50.276;18.650;2022-08-21T04:29:39;14.87;;;8.63;;
18308;SDS011;9280;50.276;18.650;2022-08-21T04:32:26;15.30;;;9.03;;
18308;SDS011;9280;50.276;18.650;2022-08-21T04:35:13;16.77;;;8.27;;
18308;SDS011;9280;50.276;18.650;2022-08-21T04:38:00;13.27;;;7.93;;
18308;SDS011;9280;50.276;18.650;2022-08-21T04:40:47;15.43;;;7.83;;
18308;SDS011;9280;50.276;18.650;2022-08-21T04:43:35;14.43;;;7.13;;
18308;SDS011;9280;50.276;18.650;2022-08-21T04:46:21;16.53;;;7.53;;
18308;SDS011;9280;50.276;18.650;2022-08-21T04:49:08;11.27;;;7.57;;
18308;SDS011;9280;50.276;18.650;2022-08-21T04:51:54;15.00;;;7.27;;
18308;SDS011;9280;50.276;18.650;2022-08-21T04:54:41;11.33;;;7.27;;
18308;SDS011;9280;50.276;18.650;2022-08-21T04:57:28;23.20;;;6.93;;
18308;SDS011;9280;50.276;18.650;2022-08-21T05:00:16;11.13;;;6.27;;
18308;SDS011;9280;50.276;18.650;2022-08-21T05:03:03;12.37;;;6.07;;
18308;SDS011;9280;50.276;18.650;2022-08-21T05:05:50;13.90;;;7.13;;
18308;SDS011;9280;50.276;18.650;2022-08-21T05:08:37;13.20;;;7.23;;
18308;SDS011;9280;50.276;18.650;2022-08-21T05:11:24;14.70;;;6.60;;
18308;SDS011;9280;50.276;18.650;2022-08-21T05:14:10;13.20;;;6.60;;
18308;SDS011;9280;50.276;18.650;2022-08-21T05:16:58;16.07;;;6.03;;
18308;SDS011;9280;50.276;18.650;2022-08-21T05:19:44;13.33;;;6.87;;
18308;SDS011;9280;50.276;18.650;2022-08-21T05:22:30;16.87;;;7.47;;
18308;SDS011;9280;50.276;18.650;2022-08-21T05:25:17;10.63;;;6.47;;
18308;SDS011;9280;50.276;18.650;2022-08-21T05:28:03;9.33;;;6.27;;
18308;SDS011;9280;50.276;18.650;2022-08-21T05:30:49;14.97;;;7.27;;
18308;SDS011;9280;50.276;18.650;2022-08-21T05:33:37;12.93;;;7.88;;
18308;SDS011;9280;50.276;18.650;2022-08-21T05:36:23;15.30;;;6.20;;
18308;SDS011;9280;50.276;18.650;2022-08-21T05:39:09;11.87;;;5.77;;
18308;SDS011;9280;50.276;18.650;2022-08-21T05:41:56;11.17;;;4.77;;
18308;SDS011;9280;50.276;18.650;2022-08-21T05:44:42;9.57;;;4.77;;
18308;SDS011;9280;50.276;18.650;2022-08-21T05:47:28;8.30;;;3.40;;
18308;SDS011;9280;50.276;18.650;2022-08-21T05:50:16;7.17;;;3.60;;
18308;SDS011;9280;50.276;18.650;2022-08-21T05:53:02;3.23;;;2.40;;
18308;SDS011;9280;50.276;18.650;2022-08-21T05:55:49;5.10;;;3.13;;
18308;SDS011;9280;50.276;18.650;2022-08-21T05:58:35;5.73;;;2.97;;
18308;SDS011;9280;50.276;18.650;2022-08-21T06:01:22;7.97;;;2.40;;
18308;SDS011;9280;50.276;18.650;2022-08-21T06:04:08;4.20;;;2.23;;
18308;SDS011;9280;50.276;18.650;2022-08-21T06:06:56;3.07;;;2.60;;
18308;SDS011;9280;50.276;18.650;2022-08-21T06:09:42;7.70;;;2.57;;
18308;SDS011;9280;50.276;18.650;2022-08-21T06:12:29;2.53;;;2.33;;
18308;SDS011;9280;50.276;18.650;2022-08-21T06:15:15;2.73;;;1.97;;
18308;SDS011;9280;50.276;18.650;2022-08-21T06:18:01;4.13;;;1.97;;
18308;SDS011;9280;50.276;18.650;2022-08-21T06:20:48;3.10;;;1.73;;
18308;SDS011;9280;50.276;18.650;2022-08-21T06:23:36;2.33;;;1.63;;
18308;SDS011;9280;50.276;18.650;2022-08-21T06:26:23;1.83;;;1.00;;
18308;SDS011;9280;50.276;18.650;2022-08-21T06:29:09;2.53;;;1.30;;
18308;SDS011;9280;50.276;18.650;2022-08-21T06:31:56;0.70;;;0.70;;
18308;SDS011;9280;50.276;18.650;2022-08-21T06:34:43;0.90;;;0.90;;
18308;SDS011;9280;50.276;18.650;2022-08-21T06:37:29;3.57;;;1.10;;
18308;SDS011;9280;50.276;18.650;2022-08-21T06:40:17;1.47;;;1.10;;
18308;SDS011;9280;50.276;18.650;2022-08-21T06:43:07;1.00;;;1.00;;
18308;SDS011;9280;50.276;18.650;2022-08-21T06:45:54;3.07;;;1.27;;
18308;SDS011;9280;50.276;18.650;2022-08-21T06:48:41;3.30;;;0.80;;
18308;SDS011;9280;50.276;18.650;2022-08-21T06:51:27;0.87;;;0.87;;
18308;SDS011;9280;50.276;18.650;2022-08-21T06:54:13;4.20;;;1.23;;
18308;SDS011;9280;50.276;18.650;2022-08-21T06:57:02;1.70;;;1.20;;
18308;SDS011;9280;50.276;18.650;2022-08-21T06:59:48;0.80;;;0.80;;
18308;SDS011;9280;50.276;18.650;2022-08-21T07:02:35;3.60;;;0.80;;
18308;SDS011;9280;50.276;18.650;2022-08-21T07:05:22;1.30;;;1.00;;
18308;SDS011;9280;50.276;18.650;2022-08-21T07:08:10;0.80;;;0.80;;
18308;SDS011;9280;50.276;18.650;2022-08-21T07:10:58;1.57;;;0.90;;
18308;SDS011;9280;50.276;18.650;2022-08-21T07:13:46;0.70;;;0.70;;
18308;SDS011;9280;50.276;18.650;2022-08-21T07:16:33;2.27;;;1.23;;
18308;SDS011;9280;50.276;18.650;2022-08-21T07:19:19;2.00;;;1.00;;
18308;SDS011;9280;50.276;18.650;2022-08-21T07:22:05;1.17;;;1.00;;
18308;SDS011;9280;50.276;18.650;2022-08-21T07:24:52;2.17;;;1.20;;
18308;SDS011;9280;50.276;18.650;2022-08-21T07:27:38;2.10;;;1.10;;
18308;SDS011;9280;50.276;18.650;2022-08-21T07:30:26;3.63;;;1.30;;
18308;SDS011;9280;50.276;18.650;2022-08-21T07:33:12;6.40;;;1.07;;
18308;SDS011;9280;50.276;18.650;2022-08-21T07:35:59;4.00;;;1.17;;
18308;SDS011;9280;50.276;18.650;2022-08-21T07:38:46;2.73;;;0.83;;
18308;SDS011;9280;50.276;18.650;2022-08-21T07:41:32;1.43;;;0.93;;
18308;SDS011;9280;50.276;18.650;2022-08-21T07:44:19;0.80;;;0.80;;
18308;SDS011;9280;50.276;18.650;2022-08-21T07:47:07;1.13;;;1.00;;
18308;SDS011;9280;50.276;18.650;2022-08-21T07:49:53;1.10;;;0.90;;
18308;SDS011;9280;50.276;18.650;2022-08-21T07:52:40;1.47;;;0.80;;
18308;SDS011;9280;50.276;18.650;2022-08-21T07:55:27;0.80;;;0.73;;
18308;SDS011;9280;50.276;18.650;2022-08-21T07:58:13;1.77;;;1.00;;
18308;SDS011;9280;50.276;18.650;2022-08-21T08:00:59;1.10;;;1.00;;
18308;SDS011;9280;50.276;18.650;2022-08-21T08:03:47;3.50;;;1.20;;
18308;SDS011;9280;50.276;18.650;2022-08-21T08:06:33;5.87;;;1.10;;
18308;SDS011;9280;50.276;18.650;2022-08-21T08:09:19;2.57;;;1.17;;
18308;SDS011;9280;50.276;18.650;2022-08-21T08:12:06;1.80;;;1.33;;
18308;SDS011;9280;50.276;18.650;2022-08-21T08:14:52;0.97;;;0.93;;
18308;SDS011;9280;50.276;18.650;2022-08-21T08:17:38;2.27;;;1.13;;
18308;SDS011;9280;50.276;18.650;2022-08-21T08:20:26;2.50;;;1.17;;
18308;SDS011;9280;50.276;18.650;2022-08-21T08:23:13;3.17;;;1.20;;
18308;SDS011;9280;50.276;18.650;2022-08-21T08:25:59;1.90;;;1.23;;
18308;SDS011;9280;50.276;18.650;2022-08-21T08:28:46;2.10;;;1.52;;
18308;SDS011;9280;50.276;18.650;2022-08-21T08:31:33;3.35;;;1.50;;
18308;SDS011;9280;50.276;18.650;2022-08-21T08:34:19;2.00;;;1.50;;
18308;SDS011;9280;50.276;18.650;2022-08-21T08:37:08;3.65;;;1.70;;
18308;SDS011;9280;50.276;18.650;2022-08-21T08:39:55;1.60;;;1.38;;
18308;SDS011;9280;50.276;18.650;2022-08-21T08:42:41;2.53;;;1.20;;
18308;SDS011;9280;50.276;18.650;2022-08-21T08:45:28;2.20;;;1.42;;
18308;SDS011;9280;50.276;18.650;2022-08-21T08:48:16;1.40;;;1.20;;
18308;SDS011;9280;50.276;18.650;2022-08-21T08:51:08;1.52;;;1.20;;
18308;SDS011;9280;50.276;18.650;2022-08-21T08:53:58;1.40;;;1.30;;
18308;SDS011;9280;50.276;18.650;2022-08-21T08:56:46;1.20;;;1.10;;
18308;SDS011;9280;50.276;18.650;2022-08-21T08:59:38;1.13;;;1.13;;
18308;SDS011;9280;50.276;18.650;2022-08-21T09:02:25;2.58;;;1.50;;
18308;SDS011;9280;50.276;18.650;2022-08-21T09:05:17;2.58;;;1.77;;
18308;SDS011;9280;50.276;18.650;2022-08-21T09:08:11;2.50;;;1.83;;
18308;SDS011;9280;50.276;18.650;2022-08-21T09:11:03;4.03;;;2.00;;
18308;SDS011;9280;50.276;18.650;2022-08-21T09:13:54;3.15;;;1.95;;
18308;SDS011;9280;50.276;18.650;2022-08-21T09:16:44;2.30;;;1.90;;
18308;SDS011;9280;50.276;18.650;2022-08-21T09:19:36;2.80;;;1.80;;
18308;SDS011;9280;50.276;18.650;2022-08-21T09:22:28;5.07;;;3.45;;
18308;SDS011;9280;50.276;18.650;2022-08-21T09:25:18;4.70;;;3.97;;
18308;SDS011;9280;50.276;18.650;2022-08-21T09:28:08;5.07;;;4.40;;
18308;SDS011;9280;50.276;18.650;2022-08-21T09:30:56;6.57;;;4.60;;
18308;SDS011;9280;50.276;18.650;2022-08-21T09:33:46;5.30;;;4.47;;
18308;SDS011;9280;50.276;18.650;2022-08-21T09:36:35;6.95;;;4.97;;
18308;SDS011;9280;50.276;18.650;2022-08-21T09:39:24;6.50;;;5.20;;
18308;SDS011;9280;50.276;18.650;2022-08-21T09:42:11;7.35;;;5.68;;
18308;SDS011;9280;50.276;18.650;2022-08-21T09:45:11;7.67;;;5.70;;
18308;SDS011;9280;50.276;18.650;2022-08-21T09:48:07;9.07;;;6.32;;
18308;SDS011;9280;50.276;18.650;2022-08-21T09:50:53;8.52;;;6.50;;
18308;SDS011;9280;50.276;18.650;2022-08-21T09:53:52;10.85;;;7.50;;
18308;SDS011;9280;50.276;18.650;2022-08-21T09:56:40;9.50;;;6.70;;
18308;SDS011;9280;50.276;18.650;2022-08-21T09:59:55;9.95;;;7.18;;
18308;SDS011;9280;50.276;18.650;2022-08-21T10:02:42;11.23;;;7.60;;
18308;SDS011;9280;50.276;18.650;2022-08-21T10:05:29;6.67;;;5.70;;
18308;SDS011;9280;50.276;18.650;2022-08-21T10:08:16;6.78;;;6.05;;
18308;SDS011;9280;50.276;18.650;2022-08-21T10:11:04;7.50;;;5.80;;
18308;SDS011;9280;50.276;18.650;2022-08-21T10:13:52;8.82;;;6.10;;
18308;SDS011;9280;50.276;18.650;2022-08-21T10:16:42;6.95;;;6.25;;
18308;SDS011;9280;50.276;18.650;2022-08-21T10:19:33;7.93;;;5.70;;
18308;SDS011;9280;50.276;18.650;2022-08-21T10:22:26;6.55;;;5.65;;
18308;SDS011;9280;50.276;18.650;2022-08-21T10:25:18;7.55;;;5.85;;
18308;SDS011;9280;50.276;18.650;2022-08-21T10:28:06;6.07;;;5.43;;
18308;SDS011;9280;50.276;18.650;2022-08-21T10:30:56;9.15;;;5.13;;
18308;SDS011;9280;50.276;18.650;2022-08-21T10:33:46;7.90;;;4.80;;
18308;SDS011;9280;50.276;18.650;2022-08-21T10:36:39;7.25;;;4.82;;
18308;SDS011;9280;50.276;18.650;2022-08-21T10:39:27;5.80;;;4.40;;
18308;SDS011;9280;50.276;18.650;2022-08-21T10:42:24;4.87;;;3.87;;
18308;SDS011;9280;50.276;18.650;2022-08-21T10:45:14;4.10;;;3.60;;
18308;SDS011;9280;50.276;18.650;2022-08-21T10:48:03;4.57;;;3.70;;
18308;SDS011;9280;50.276;18.650;2022-08-21T10:50:52;3.05;;;2.70;;
18308;SDS011;9280;50.276;18.650;2022-08-21T10:53:45;3.53;;;2.55;;
18308;SDS011;9280;50.276;18.650;2022-08-21T10:56:33;2.42;;;2.20;;
18308;SDS011;9280;50.276;18.650;2022-08-21T10:59:23;2.22;;;1.90;;
18308;SDS011;9280;50.276;18.650;2022-08-21T11:02:13;3.90;;;1.90;;
18308;SDS011;9280;50.276;18.650;2022-08-21T11:05:02;1.73;;;1.60;;
18308;SDS011;9280;50.276;18.650;2022-08-21T11:07:53;2.37;;;1.70;;
18308;SDS011;9280;50.276;18.650;2022-08-21T11:10:44;2.25;;;1.60;;
18308;SDS011;9280;50.276;18.650;2022-08-21T11:13:33;2.80;;;1.88;;
18308;SDS011;9280;50.276;18.650;2022-08-21T11:16:23;3.03;;;1.90;;
18308;SDS011;9280;50.276;18.650;2022-08-21T11:19:13;2.05;;;1.60;;
18308;SDS011;9280;50.276;18.650;2022-08-21T11:22:04;1.08;;;1.08;;
18308;SDS011;9280;50.276;18.650;2022-08-21T11:24:54;1.77;;;1.00;;
18308;SDS011;9280;50.276;18.650;2022-08-21T11:27:45;0.98;;;0.93;;
18308;SDS011;9280;50.276;18.650;2022-08-21T11:30:33;1.20;;;1.20;;
18308;SDS011;9280;50.276;18.650;2022-08-21T11:33:29;1.85;;;1.35;;
18308;SDS011;9280;50.276;18.650;2022-08-21T11:36:20;1.40;;;1.30;;
18308;SDS011;9280;50.276;18.650;2022-08-21T11:39:11;1.58;;;1.30;;
18308;SDS011;9280;50.276;18.650;2022-08-21T11:42:02;2.00;;;1.50;;
18308;SDS011;9280;50.276;18.650;2022-08-21T11:44:56;1.10;;;1.10;;
18308;SDS011;9280;50.276;18.650;2022-08-21T11:47:54;1.03;;;1.03;;
18308;SDS011;9280;50.276;18.650;2022-08-21T11:50:42;1.30;;;1.20;;
18308;SDS011;9280;50.276;18.650;2022-08-21T11:53:31;1.40;;;1.30;;
18308;SDS011;9280;50.276;18.650;2022-08-21T11:56:21;1.43;;;1.33;;
18308;SDS011;9280;50.276;18.650;2022-08-21T11:59:11;1.50;;;1.40;;
18308;SDS011;9280;50.276;18.650;2022-08-21T12:02:02;2.40;;;1.80;;
18308;SDS011;9280;50.276;18.650;2022-08-21T12:04:53;1.80;;;1.70;;
18308;SDS011;9280;50.276;18.650;2022-08-21T12:07:41;1.50;;;1.40;;
18308;SDS011;9280;50.276;18.650;2022-08-21T12:10:31;1.57;;;1.47;;
18308;SDS011;9280;50.276;18.650;2022-08-21T12:13:23;1.80;;;1.70;;
18308;SDS011;9280;50.276;18.650;2022-08-21T12:16:11;1.53;;;1.40;;
18308;SDS011;9280;50.276;18.650;2022-08-21T12:19:06;1.63;;;1.53;;
18308;SDS011;9280;50.276;18.650;2022-08-21T12:21:57;2.57;;;1.57;;
18308;SDS011;9280;50.276;18.650;2022-08-21T12:24:45;1.73;;;1.60;;
18308;SDS011;9280;50.276;18.650;2022-08-21T12:27:41;1.77;;;1.67;;
18308;SDS011;9280;50.276;18.650;2022-08-21T12:30:33;1.70;;;1.60;;
18308;SDS011;9280;50.276;18.650;2022-08-21T12:33:22;1.90;;;1.80;;
18308;SDS011;9280;50.276;18.650;2022-08-21T12:36:12;3.30;;;2.10;;
18308;SDS011;9280;50.276;18.650;2022-08-21T12:39:03;1.97;;;1.80;;
18308;SDS011;9280;50.276;18.650;2022-08-21T12:41:52;2.10;;;2.00;;
18308;SDS011;9280;50.276;18.650;2022-08-21T12:44:41;2.60;;;2.40;;
18308;SDS011;9280;50.276;18.650;2022-08-21T12:47:29;2.20;;;2.03;;
18308;SDS011;9280;50.276;18.650;2022-08-21T12:50:19;2.50;;;2.30;;
18308;SDS011;9280;50.276;18.650;2022-08-21T12:53:09;2.10;;;2.00;;
18308;SDS011;9280;50.276;18.650;2022-08-21T12:56:01;2.50;;;2.30;;
18308;SDS011;9280;50.276;18.650;2022-08-21T12:58:49;2.23;;;2.07;;
18308;SDS011;9280;50.276;18.650;2022-08-21T13:01:35;2.87;;;2.67;;
18308;SDS011;9280;50.276;18.650;2022-08-21T13:04:24;3.00;;;2.57;;
18308;SDS011;9280;50.276;18.650;2022-08-21T13:07:14;3.00;;;2.70;;
18308;SDS011;9280;50.276;18.650;2022-08-21T13:10:04;2.73;;;2.53;;
18308;SDS011;9280;50.276;18.650;2022-08-21T13:12:52;3.03;;;2.53;;
18308;SDS011;9280;50.276;18.650;2022-08-21T13:15:41;3.63;;;2.73;;
18308;SDS011;9280;50.276;18.650;2022-08-21T13:18:29;3.70;;;2.47;;
18308;SDS011;9280;50.276;18.650;2022-08-21T13:21:16;2.70;;;2.50;;
18308;SDS011;9280;50.276;18.650;2022-08-21T13:27:19;2.93;;;2.70;;
18308;SDS011;9280;50.276;18.650;2022-08-21T13:30:07;3.30;;;3.00;;
18308;SDS011;9280;50.276;18.650;2022-08-21T13:32:55;3.28;;;2.97;;
18308;SDS011;9280;50.276;18.650;2022-08-21T13:35:48;3.00;;;2.70;;
18308;SDS011;9280;50.276;18.650;2022-08-21T13:38:35;3.00;;;2.80;;
18308;SDS011;9280;50.276;18.650;2022-08-21T13:41:24;3.10;;;2.80;;
18308;SDS011;9280;50.276;18.650;2022-08-21T13:44:17;3.03;;;2.73;;
18308;SDS011;9280;50.276;18.650;2022-08-21T13:47:04;3.20;;;2.90;;
18308;SDS011;9280;50.276;18.650;2022-08-21T13:49:52;3.87;;;3.57;;
18308;SDS011;9280;50.276;18.650;2022-08-21T13:52:46;3.80;;;3.40;;
18308;SDS011;9280;50.276;18.650;2022-08-21T13:55:35;4.77;;;4.03;;
18308;SDS011;9280;50.276;18.650;2022-08-21T13:58:25;4.10;;;3.70;;
18308;SDS011;9280;50.276;18.650;2022-08-21T14:01:18;6.00;;;4.70;;
18308;SDS011;9280;50.276;18.650;2022-08-21T14:04:06;8.90;;;6.05;;
18308;SDS011;9280;50.276;18.650;2022-08-21T14:06:53;9.87;;;6.33;;
18308;SDS011;9280;50.276;18.650;2022-08-21T14:09:41;8.25;;;5.93;;
18308;SDS011;9280;50.276;18.650;2022-08-21T14:12:32;8.88;;;6.60;;
18308;SDS011;9280;50.276;18.650;2022-08-21T14:15:26;7.15;;;5.78;;
18308;SDS011;9280;50.276;18.650;2022-08-21T14:18:17;7.68;;;6.47;;
18308;SDS011;9280;50.276;18.650;2022-08-21T14:21:04;8.68;;;6.55;;
18308;SDS011;9280;50.276;18.650;2022-08-21T14:23:58;9.35;;;7.10;;
18308;SDS011;9280;50.276;18.650;2022-08-21T14:26:50;9.05;;;6.63;;
18308;SDS011;9280;50.276;18.650;2022-08-21T14:29:37;7.53;;;5.47;;
18308;SDS011;9280;50.276;18.650;2022-08-21T14:32:25;7.85;;;5.50;;
18308;SDS011;9280;50.276;18.650;2022-08-21T14:35:15;6.55;;;5.40;;
18308;SDS011;9280;50.276;18.650;2022-08-21T14:38:02;7.20;;;5.65;;
18308;SDS011;9280;50.276;18.650;2022-08-21T14:40:49;9.30;;;5.60;;
18308;SDS011;9280;50.276;18.650;2022-08-21T14:43:36;6.85;;;5.13;;
18308;SDS011;9280;50.276;18.650;2022-08-21T14:46:24;5.97;;;4.75;;
18308;SDS011;9280;50.276;18.650;2022-08-21T14:49:11;7.45;;;5.30;;
18308;SDS011;9280;50.276;18.650;2022-08-21T14:51:59;5.90;;;4.65;;
18308;SDS011;9280;50.276;18.650;2022-08-21T14:54:45;7.13;;;5.25;;
18308;SDS011;9280;50.276;18.650;2022-08-21T14:57:34;5.88;;;4.25;;
18308;SDS011;9280;50.276;18.650;2022-08-21T15:00:22;5.78;;;4.70;;
18308;SDS011;9280;50.276;18.650;2022-08-21T15:03:08;6.22;;;4.88;;
18308;SDS011;9280;50.276;18.650;2022-08-21T15:05:55;5.82;;;5.13;;
18308;SDS011;9280;50.276;18.650;2022-08-21T15:08:43;6.88;;;4.68;;
18308;SDS011;9280;50.276;18.650;2022-08-21T15:11:30;8.95;;;5.55;;
18308;SDS011;9280;50.276;18.650;2022-08-21T15:14:18;8.60;;;5.03;;
18308;SDS011;9280;50.276;18.650;2022-08-21T15:17:06;10.30;;;5.32;;
18308;SDS011;9280;50.276;18.650;2022-08-21T15:19:53;7.43;;;5.72;;
18308;SDS011;9280;50.276;18.650;2022-08-21T15:22:39;8.27;;;5.63;;
18308;SDS011;9280;50.276;18.650;2022-08-21T15:25:30;8.20;;;5.90;;
18308;SDS011;9280;50.276;18.650;2022-08-21T15:28:16;9.03;;;6.17;;
18308;SDS011;9280;50.276;18.650;2022-08-21T15:31:04;9.57;;;6.30;;
18308;SDS011;9280;50.276;18.650;2022-08-21T15:33:50;11.40;;;7.10;;
18308;SDS011;9280;50.276;18.650;2022-08-21T15:36:37;10.70;;;6.65;;
18308;SDS011;9280;50.276;18.650;2022-08-21T15:39:24;9.65;;;6.10;;
18308;SDS011;9280;50.276;18.650;2022-08-21T15:42:12;10.07;;;6.63;;
18308;SDS011;9280;50.276;18.650;2022-08-21T15:44:58;10.75;;;6.32;;
18308;SDS011;9280;50.276;18.650;2022-08-21T15:47:45;10.88;;;7.07;;
18308;SDS011;9280;50.276;18.650;2022-08-21T15:50:31;10.43;;;6.50;;
18308;SDS011;9280;50.276;18.650;2022-08-21T15:53:18;11.02;;;6.70;;
18308;SDS011;9280;50.276;18.650;2022-08-21T15:56:05;11.02;;;6.15;;
18308;SDS011;9280;50.276;18.650;2022-08-21T15:58:57;10.63;;;6.28;;
18308;SDS011;9280;50.276;18.650;2022-08-21T16:01:44;8.85;;;6.70;;
18308;SDS011;9280;50.276;18.650;2022-08-21T16:04:31;10.48;;;7.28;;
18308;SDS011;9280;50.276;18.650;2022-08-21T16:07:20;10.13;;;6.95;;
18308;SDS011;9280;50.276;18.650;2022-08-21T16:10:07;12.48;;;7.03;;
18308;SDS011;9280;50.276;18.650;2022-08-21T16:12:56;11.27;;;7.00;;
18308;SDS011;9280;50.276;18.650;2022-08-21T16:15:45;15.23;;;7.28;;
18308;SDS011;9280;50.276;18.650;2022-08-21T16:18:32;10.43;;;6.95;;
18308;SDS011;9280;50.276;18.650;2022-08-21T16:21:19;13.18;;;7.72;;
18308;SDS011;9280;50.276;18.650;2022-08-21T16:24:06;13.45;;;7.63;;
18308;SDS011;9280;50.276;18.650;2022-08-21T16:26:52;12.82;;;7.78;;
18308;SDS011;9280;50.276;18.650;2022-08-21T16:29:39;10.93;;;8.20;;
18308;SDS011;9280;50.276;18.650;2022-08-21T16:32:28;14.25;;;7.90;;
18308;SDS011;9280;50.276;18.650;2022-08-21T16:35:15;20.08;;;8.73;;
18308;SDS011;9280;50.276;18.650;2022-08-21T16:38:02;16.15;;;8.77;;
18308;SDS011;9280;50.276;18.650;2022-08-21T16:40:48;13.27;;;8.73;;
18308;SDS011;9280;50.276;18.650;2022-08-21T16:43:35;13.35;;;8.35;;
18308;SDS011;9280;50.276;18.650;2022-08-21T16:46:23;12.18;;;8.00;;
18308;SDS011;9280;50.276;18.650;2022-08-21T16:49:11;15.25;;;8.50;;
18308;SDS011;9280;50.276;18.650;2022-08-21T16:51:58;14.70;;;8.85;;